Main page
METAR-TAF:

METAR-TAF

Airports :

Bamako, Mali

Bamako–Modibo Keïta International Airport

latitude: 12-32N, longitude: 007-57W, elevation: 380 m

Current weather observation

The report was made 32 minutes ago, at 11:30 UTC
Wind 6 kt from the West/Southwest
Temperature 27°C
Humidity 74%
Pressure 1016 hPa
Visibility 10 km or more
Scattered clouds at a height of 2000 ft

METAR: GABS 261130Z 24006KT 9999 SCT020 27/22 Q1016 NOSIG

Time: 12:02 (12:02 UTC)


TAF: missing

Weather observations and forecasts of more than 4000 airports (METAR and TAF reports).

The available stations are represented by yellow and red dots on the map.

Hover mouse over dot to see the name of the station.

Then click to see weather observations and forecasts.

To change the map : click on the green buttons with a black cross to zoom in, on the green button with a dash to zoom out, or on the green arrows for adjacent maps.


METAR-TAF: